Startpagina
METAR-TAF:

METAR-TAF

Vliegvelden :

Tirupati, India

breedte: 13-38-16N, lengte: 79-32-50E, hoogte: 107 m

Actueel weer

Dit bericht is 39 minuten geleden gemaakt, om 11:00 UTC
Wind 5 kt uit het oostnoordoosten
Temperatuur 38°C
Vochtigheid 27%
Druk 1008 hPa
Zicht: 7000 m
Weinig wolken op 2000 ft

METAR: VOTP 251100Z 07005KT 7000 FEW020 38/16 Q1008

Tijdstip: 17:09 (11:39 UTC)

Verwachting

Dit bericht is 3 uur en het 39 minuten geleden gemaakt, om 08:00 UTC
Verwachting geldig van 25 om 09 UTC tot 25 om 18 UTC
Wind 8 kt uit het oostzuidoosten
Zicht: 6000 m
Weinig wolken op 2000 ft

TAF: VOTP 250800Z 2509/2518 12008KT 6000 FEW020

Waarnemingen en weersverwachtingen van meer dan 4000 vliegvelden (METAR en TAF).

De beschikbare stations zijn de gele en rode punten op de kaart.

Ga met uw muis naar het station om de naam te zien.

Klik dan om waarnemingen en weersverwachtingen te zien.

kaart wijzigen: klik op de groene knoppen met een zwart kruis om in te zoomen, op de groene knop met een streepje om uit te zoomen of op de groene pijlen voor aangrenzende kaarten.


METAR-TAF: